Time;durP1;ratioP1;P1;durP2;ratioP2;P2;SDS_P1;SDS_P2;PMS_P1;PMS_P2;Temp;Humidity;BMP_temperature;BMP_pressure;BME280_temperature;BME280_humidity;BME280_pressure;Samples;Min_cycle;Max_cycle;Signal;HPM_P1;HPM_P2
2023/09/16 00:00:50;;;;;;;;;;;;;;;13.67;100.00;101580.38;5062161;28;20019;-83
2023/09/16 00:03:36;;;;;;;;;;;;;;;13.67;100.00;101576.88;5059858;28;19933;-84
2023/09/16 00:06:21;;;;;;;;;;;;;;;13.67;100.00;101576.88;5061214;28;20020;-84
2023/09/16 00:09:07;;;;;;;;;;;;;;;13.66;100.00;101562.69;5061568;28;19950;-84
2023/09/16 00:11:53;;;;;;;;;;;;;;;13.66;100.00;101560.03;5061397;28;19936;-84
2023/09/16 00:14:38;;;;;;;;;;;;;;;13.67;100.00;101559.09;5060890;28;19940;-84
2023/09/16 00:17:24;;;;;;;;;;;;;;;13.68;100.00;101566.13;5060361;28;20026;-83
2023/09/16 00:20:15;;;;;;;;;;;;;;;13.70;100.00;101566.94;5047744;28;20397;-83
2023/09/16 00:23:00;;;;;;;;;;;;;;;13.74;100.00;101564.13;5055429;28;19960;-84
2023/09/16 00:25:46;;;;;;;;;;;;;;;13.77;100.00;101569.31;5062014;28;19932;-84
2023/09/16 00:28:32;;;;;;;;;;;;;;;13.77;100.00;101570.16;5061478;28;19932;-84
2023/09/16 00:31:17;;;;;;;;;;;;;;;13.78;100.00;101557.72;5049218;28;19928;-84
2023/09/16 00:34:03;;;;;;;;;;;;;;;13.79;100.00;101556.78;5060066;28;20941;-83
2023/09/16 00:36:49;;;;;;;;;;;;;;;13.80;100.00;101556.72;5073474;28;19937;-84
2023/09/16 00:39:36;;;;;;;;;;;;;;;13.80;100.00;101556.72;5061577;28;20010;-83
2023/09/16 00:42:21;;;;;;;;;;;;;;;13.81;100.00;101557.56;5060837;28;20036;-84
2023/09/16 00:45:10;;;;;;;;;;;;;;;13.80;100.00;101546.09;5046415;28;19928;-84
2023/09/16 00:47:57;;;;;;;;;;;;;;;13.80;100.00;101547.88;5049330;28;20290;-85
2023/09/16 00:50:43;;;;;;;;;;;;;;;13.80;100.00;101545.22;5076053;28;20389;-84
2023/09/16 00:53:29;;;;;;;;;;;;;;;13.78;100.00;101547.09;5052079;28;19952;-83
2023/09/16 00:56:14;;;;;;;;;;;;;;;13.76;100.00;101540.94;5053613;28;19931;-84
2023/09/16 00:59:00;;;;;;;;;;;;;;;13.74;100.00;101550.81;5066088;28;19932;-84
2023/09/16 01:01:49;;;;;;;;;;;;;;;13.74;100.00;101553.47;5049268;28;20013;-85
2023/09/16 01:04:35;;;;;;;;;;;;;;;13.71;100.00;101547.38;5063619;28;20920;-86
2023/09/16 01:07:21;;;;;;;;;;;;;;;13.67;100.00;101545.78;5063917;28;19932;-86
2023/09/16 01:10:07;;;;;;;;;;;;;;;13.66;100.00;101545.84;5065872;28;19953;-84
2023/09/16 01:12:54;;;;;;;;;;;;;;;13.63;100.00;101543.34;5064163;28;20383;-84
2023/09/16 01:15:41;;;;;;;;;;;;;;;13.60;100.00;101528.38;5049481;28;19929;-84
2023/09/16 01:18:27;;;;;;;;;;;;;;;13.61;100.00;101531.94;5038786;28;19984;-84
2023/09/16 01:21:13;;;;;;;;;;;;;;;13.59;100.00;101524.00;5062511;28;20010;-84
2023/09/16 01:24:15;;;;;;;;;;;;;;;13.58;100.00;101527.59;5061700;28;19955;-84
2023/09/16 01:27:01;;;;;;;;;;;;;;;13.58;100.00;101519.63;5049036;28;20315;-85
2023/09/16 01:29:47;;;;;;;;;;;;;;;13.56;100.00;101518.81;5051008;28;19928;-84
2023/09/16 01:32:41;;;;;;;;;;;;;;;13.56;100.00;101524.13;5063244;28;19923;-85
2023/09/16 01:35:28;;;;;;;;;;;;;;;13.55;100.00;101519.75;5064615;28;20001;-84
2023/09/16 01:38:15;;;;;;;;;;;;;;;13.53;100.00;101521.63;5049102;28;19944;-84
2023/09/16 01:41:01;;;;;;;;;;;;;;;13.50;100.00;101519.13;5051272;28;19928;-84
2023/09/16 01:43:46;;;;;;;;;;;;;;;13.47;100.00;101520.13;5049070;28;19928;-82
2023/09/16 01:46:32;;;;;;;;;;;;;;;13.44;100.00;101526.44;5050674;28;19924;-84
2023/09/16 01:49:18;;;;;;;;;;;;;;;13.40;100.00;101526.66;5063271;28;19924;-84
2023/09/16 01:52:03;;;;;;;;;;;;;;;13.39;100.00;101522.25;5064996;28;19955;-84
2023/09/16 01:54:49;;;;;;;;;;;;;;;13.35;100.00;101523.34;5062118;28;21862;-84
2023/09/16 01:57:35;;;;;;;;;;;;;;;13.32;100.00;101519.03;5063722;28;19983;-84
2023/09/16 02:00:20;;;;;;;;;;;;;;;13.29;100.00;101517.34;5063738;28;20463;-83
2023/09/16 02:03:06;;;;;;;;;;;;;;;13.28;100.00;101520.06;5063778;28;20374;-84
2023/09/16 02:05:52;;;;;;;;;;;;;;;13.26;100.00;101516.63;5062779;28;20508;-83
2023/09/16 02:08:37;;;;;;;;;;;;;;;13.25;100.00;101518.41;5047672;28;19928;-84
2023/09/16 02:11:23;;;;;;;;;;;;;;;13.23;100.00;101524.78;5049306;28;19945;-84
2023/09/16 02:14:10;;;;;;;;;;;;;;;13.23;100.00;101520.28;5063481;28;19928;-85
2023/09/16 02:16:56;;;;;;;;;;;;;;;13.22;100.00;101523.03;5063181;28;19924;-84
2023/09/16 02:19:41;;;;;;;;;;;;;;;13.21;100.00;101521.28;5061697;28;20383;-84
2023/09/16 02:22:27;;;;;;;;;;;;;;;13.18;100.00;101517.84;5048087;28;20682;-83
2023/09/16 02:25:15;;;;;;;;;;;;;;;13.16;100.00;101513.53;5062113;28;20290;-83
2023/09/16 02:28:01;;;;;;;;;;;;;;;13.12;100.00;101512.81;5059277;28;20382;-83
2023/09/16 02:30:47;;;;;;;;;;;;;;;13.10;100.00;101520.00;5063760;28;19924;-83
2023/09/16 02:33:33;;;;;;;;;;;;;;;13.07;100.00;101517.47;5062865;28;19954;-84
2023/09/16 02:36:19;;;;;;;;;;;;;;;13.02;100.00;101522.16;5064005;28;19929;-83
2023/09/16 02:39:05;;;;;;;;;;;;;;;12.98;100.00;101518.78;5044374;28;19928;-84
2023/09/16 02:41:50;;;;;;;;;;;;;;;12.94;100.00;101519.84;5049798;28;19932;-85
2023/09/16 02:44:36;;;;;;;;;;;;;;;12.93;100.00;101523.44;5062373;28;19928;-86
2023/09/16 02:47:21;;;;;;;;;;;;;;;12.89;100.00;101520.03;5062601;28;19932;-85
2023/09/16 02:50:07;;;;;;;;;;;;;;;12.87;100.00;101524.53;5063114;28;19928;-86
2023/09/16 02:52:53;;;;;;;;;;;;;;;12.85;100.00;101526.41;5059577;28;20006;-86
2023/09/16 02:55:41;;;;;;;;;;;;;;;12.84;100.00;101522.03;5061157;28;19932;-84
2023/09/16 02:58:27;;;;;;;;;;;;;;;12.83;100.00;101528.28;5061703;28;20366;-84
2023/09/16 03:01:13;;;;;;;;;;;;;;;12.82;100.00;101531.00;5062761;28;19982;-84
2023/09/16 03:03:59;;;;;;;;;;;;;;;12.81;100.00;101530.13;5061862;28;20066;-84
2023/09/16 03:06:44;;;;;;;;;;;;;;;12.80;100.00;101517.78;5036213;28;19928;-84
2023/09/16 03:09:30;;;;;;;;;;;;;;;12.80;100.00;101514.28;5062487;28;19985;-85
2023/09/16 03:12:16;;;;;;;;;;;;;;;12.80;100.00;101508.97;5062130;28;19932;-86
2023/09/16 03:15:01;;;;;;;;;;;;;;;12.79;100.00;101510.75;5037298;28;20043;-83
2023/09/16 03:17:47;;;;;;;;;;;;;;;12.80;100.00;101508.97;5048943;28;19960;-84
2023/09/16 03:20:33;;;;;;;;;;;;;;;12.80;100.00;101501.84;5062197;28;19947;-83
2023/09/16 03:23:18;;;;;;;;;;;;;;;12.80;100.00;101507.16;5061275;28;21884;-85
2023/09/16 03:26:04;;;;;;;;;;;;;;;12.80;100.00;101498.31;5063242;28;20291;-85
2023/09/16 03:28:52;;;;;;;;;;;;;;;12.81;100.00;101508.03;5046173;28;19948;-84
2023/09/16 03:31:37;;;;;;;;;;;;;;;12.80;100.00;101500.97;5061102;28;19924;-84
2023/09/16 03:34:23;;;;;;;;;;;;;;;12.80;100.00;101499.19;5059436;28;19940;-84
2023/09/16 03:37:09;;;;;;;;;;;;;;;12.79;100.00;101500.09;5060883;28;19968;-82
2023/09/16 03:39:54;;;;;;;;;;;;;;;12.79;100.00;101493.94;5061154;28;19951;-84
2023/09/16 03:42:40;;;;;;;;;;;;;;;12.77;100.00;101492.19;5058483;28;20370;-84
2023/09/16 03:45:25;;;;;;;;;;;;;;;12.75;100.00;101494.06;5061498;28;20029;-83
2023/09/16 03:48:11;;;;;;;;;;;;;;;12.76;100.00;101505.56;5060827;28;19981;-84
2023/09/16 03:50:57;;;;;;;;;;;;;;;12.76;100.00;101500.25;5059327;28;20298;-84
2023/09/16 03:53:42;;;;;;;;;;;;;;;12.74;100.00;101502.09;5060814;28;19931;-84
2023/09/16 03:56:28;;;;;;;;;;;;;;;12.73;100.00;101497.72;5060710;28;19939;-84
2023/09/16 03:59:14;;;;;;;;;;;;;;;12.72;100.00;101496.00;5062797;28;19936;-82
2023/09/16 04:01:59;;;;;;;;;;;;;;;12.70;100.00;101495.22;5063099;28;20627;-84
2023/09/16 04:04:45;;;;;;;;;;;;;;;12.66;100.00;101489.19;5063446;28;19951;-84
2023/09/16 04:07:30;;;;;;;;;;;;;;;12.65;100.00;101494.53;5062010;28;20401;-83
2023/09/16 04:10:16;;;;;;;;;;;;;;;12.62;100.00;101491.09;5060234;28;19928;-84
2023/09/16 04:13:02;;;;;;;;;;;;;;;12.61;100.00;101491.16;5046911;28;20442;-84
2023/09/16 04:15:48;;;;;;;;;;;;;;;12.60;100.00;101495.59;5059626;28;20387;-83
2023/09/16 04:18:34;;;;;;;;;;;;;;;12.58;100.00;101488.66;5047291;28;19985;-83
2023/09/16 04:21:20;;;;;;;;;;;;;;;12.57;100.00;101489.56;5048010;28;20559;-82
2023/09/16 04:24:05;;;;;;;;;;;;;;;12.57;100.00;101494.88;5059332;28;19984;-83
2023/09/16 04:26:51;;;;;;;;;;;;;;;12.55;100.00;101491.44;5058555;28;19933;-83
2023/09/16 04:29:37;;;;;;;;;;;;;;;12.54;100.00;101493.25;5061815;28;19928;-84
2023/09/16 04:32:22;;;;;;;;;;;;;;;12.55;100.00;101491.44;5060214;28;19937;-82
2023/09/16 04:35:08;;;;;;;;;;;;;;;12.54;100.00;101484.41;5061300;28;19932;-83
2023/09/16 04:37:55;;;;;;;;;;;;;;;12.53;100.00;101487.97;5061787;28;21368;-84
2023/09/16 04:40:42;;;;;;;;;;;;;;;12.52;100.00;101486.25;5059263;28;19932;-84
2023/09/16 04:43:27;;;;;;;;;;;;;;;12.50;100.00;101486.31;5056279;28;20270;-84
2023/09/16 04:46:16;;;;;;;;;;;;;;;12.49;100.00;101489.91;5057773;28;19935;-84
2023/09/16 04:49:02;;;;;;;;;;;;;;;12.48;100.00;101493.50;5060532;28;19974;-82
2023/09/16 04:51:47;;;;;;;;;;;;;;;12.46;100.00;101482.94;5049433;28;20662;-85
2023/09/16 04:54:35;;;;;;;;;;;;;;;12.46;100.00;101482.06;5050245;28;20874;-83
2023/09/16 04:57:21;;;;;;;;;;;;;;;12.45;100.00;101480.34;5057374;28;20039;-83
2023/09/16 05:00:07;;;;;;;;;;;;;;;12.43;100.00;101471.59;5045325;28;20017;-84
2023/09/16 05:02:52;;;;;;;;;;;;;;;12.38;100.00;101474.44;5047013;28;19928;-83
2023/09/16 05:05:38;;;;;;;;;;;;;;;12.36;100.00;101474.50;5046115;28;19932;-82
2023/09/16 05:08:23;;;;;;;;;;;;;;;12.32;100.00;101480.84;5046331;28;19936;-82
2023/09/16 05:11:09;;;;;;;;;;;;;;;12.28;100.00;101473.97;5043884;28;20033;-82
2023/09/16 05:13:55;;;;;;;;;;;;;;;12.26;100.00;101470.50;5048994;28;19936;-81
2023/09/16 05:16:41;;;;;;;;;;;;;;;12.26;100.00;101485.59;5060019;28;19928;-82
2023/09/16 05:19:26;;;;;;;;;;;;;;;12.22;100.00;101475.06;5061779;28;19937;-82
2023/09/16 05:22:12;;;;;;;;;;;;;;;12.24;100.00;101477.69;5059466;28;19928;-82
2023/09/16 05:24:58;;;;;;;;;;;;;;;12.24;100.00;101479.47;5060828;28;20019;-82
2023/09/16 05:27:44;;;;;;;;;;;;;;;12.24;100.00;101482.97;5061104;28;19923;-82
2023/09/16 05:30:29;;;;;;;;;;;;;;;12.24;100.00;101471.53;5061615;28;20387;-83
2023/09/16 05:33:15;;;;;;;;;;;;;;;12.21;100.00;101478.66;5059054;28;20389;-83
2023/09/16 05:36:01;;;;;;;;;;;;;;;12.20;100.00;101481.41;5038786;28;19928;-80
2023/09/16 05:38:53;;;;;;;;;;;;;;;12.21;100.00;101472.50;5061692;28;19932;-81
2023/09/16 05:41:38;;;;;;;;;;;;;;;12.21;100.00;101478.66;5061259;28;19932;-81
2023/09/16 05:44:24;;;;;;;;;;;;;;;12.23;100.00;101475.94;5062557;28;19924;-82
2023/09/16 05:47:10;;;;;;;;;;;;;;;12.25;100.00;101479.41;5062976;28;19932;-81
2023/09/16 05:49:56;;;;;;;;;;;;;;;12.27;100.00;101471.38;5059058;28;19928;-80
2023/09/16 05:52:42;;;;;;;;;;;;;;;12.29;100.00;101475.69;5034629;28;19928;-81
2023/09/16 05:55:28;;;;;;;;;;;;;;;12.31;100.00;101476.47;5060681;28;20663;-81
2023/09/16 05:58:13;;;;;;;;;;;;;;;12.35;100.00;101486.06;5032638;28;19924;-80
2023/09/16 06:00:59;;;;;;;;;;;;;;;12.38;100.00;101478.88;5055205;28;19937;-80
2023/09/16 06:03:45;;;;;;;;;;;;;;;12.40;100.00;101487.63;5044104;28;19928;-79
2023/09/16 06:06:30;;;;;;;;;;;;;;;12.41;100.00;101489.38;5060937;28;20043;-81
2023/09/16 06:09:16;;;;;;;;;;;;;;;12.43;100.00;101487.50;5044075;28;19928;-80
2023/09/16 06:12:02;;;;;;;;;;;;;;;12.44;100.00;101490.13;5060998;28;19939;-80
2023/09/16 06:14:47;;;;;;;;;;;;;;;12.45;100.00;101490.97;5049419;28;20964;-79
2023/09/16 06:17:35;;;;;;;;;;;;;;;12.45;100.00;101497.16;5063163;28;21761;-80
2023/09/16 06:20:21;;;;;;;;;;;;;;;12.47;100.00;101499.72;5061677;28;20367;-82
2023/09/16 06:23:07;;;;;;;;;;;;;;;12.51;100.00;101506.63;5063334;28;20557;-79
2023/09/16 06:25:52;;;;;;;;;;;;;;;12.53;100.00;101509.22;5057941;28;20456;-79
2023/09/16 06:28:38;;;;;;;;;;;;;;;12.57;100.00;101514.34;5059376;28;20362;-80
2023/09/16 06:31:24;;;;;;;;;;;;;;;12.59;100.00;101509.81;5060099;28;19928;-80
2023/09/16 06:34:09;;;;;;;;;;;;;;;12.62;100.00;101503.50;5057253;28;19932;-80
2023/09/16 06:36:55;;;;;;;;;;;;;;;12.67;100.00;101508.63;5042141;28;20274;-80
2023/09/16 06:39:41;;;;;;;;;;;;;;;12.72;100.00;101501.31;5055876;28;20936;-80
2023/09/16 06:42:27;;;;;;;;;;;;;;;12.76;100.00;101510.88;5055652;28;20047;-80
2023/09/16 06:45:13;;;;;;;;;;;;;;;12.80;100.00;101504.50;5056087;28;19989;-80
2023/09/16 06:47:58;;;;;;;;;;;;;;;12.84;100.00;101508.75;5055190;28;20310;-79
2023/09/16 06:50:44;;;;;;;;;;;;;;;12.87;100.00;101497.97;5057425;28;20556;-79
2023/09/16 06:53:31;;;;;;;;;;;;;;;12.94;100.00;101505.66;5058958;28;19947;-79
2023/09/16 06:56:23;;;;;;;;;;;;;;;12.98;100.00;101504.59;5057700;28;19932;-79
2023/09/16 06:59:11;;;;;;;;;;;;;;;13.05;100.00;101500.75;5062267;28;19936;-79
2023/09/16 07:01:57;;;;;;;;;;;;;;;13.11;100.00;101503.13;5060443;28;20288;-79
2023/09/16 07:04:45;;;;;;;;;;;;;;;13.18;100.00;101503.69;5046291;28;20371;-78
2023/09/16 07:07:31;;;;;;;;;;;;;;;13.26;100.00;101513.97;5058025;28;19970;-79
2023/09/16 07:10:16;;;;;;;;;;;;;;;13.34;100.00;101509.16;5062667;28;19932;-80
2023/09/16 07:13:02;;;;;;;;;;;;;;;13.43;100.00;101516.72;5061741;28;19935;-80
2023/09/16 07:15:51;;;;;;;;;;;;;;;13.53;100.00;101519.84;5061452;28;19932;-82
2023/09/16 07:18:37;;;;;;;;;;;;;;;13.59;100.00;101510.72;5037005;28;19928;-82
2023/09/16 07:21:23;;;;;;;;;;;;;;;13.67;100.00;101513.00;5049279;28;19936;-80
2023/09/16 07:24:08;;;;;;;;;;;;;;;13.72;100.00;101510.97;5060205;28;19928;-81
2023/09/16 07:26:54;;;;;;;;;;;;;;;13.82;100.00;101517.59;5060423;28;20030;-81
2023/09/16 07:29:40;;;;;;;;;;;;;;;13.91;100.00;101516.28;5059888;28;19928;-81
2023/09/16 07:32:26;;;;;;;;;;;;;;;13.98;100.00;101514.16;5054959;28;19928;-81
2023/09/16 07:35:12;;;;;;;;;;;;;;;14.04;100.00;101520.97;5057573;28;20479;-80
2023/09/16 07:37:57;;;;;;;;;;;;;;;14.11;100.00;101523.28;5058987;28;20019;-80
2023/09/16 07:40:43;;;;;;;;;;;;;;;14.20;100.00;101521.97;5060250;28;19928;-81
2023/09/16 07:43:28;;;;;;;;;;;;;;;14.29;100.00;101525.97;5059404;28;19930;-81
2023/09/16 07:46:14;;;;;;;;;;;;;;;14.37;100.00;101529.09;5057646;28;19928;-80
2023/09/16 07:49:00;;;;;;;;;;;;;;;14.45;100.00;101534.03;5057641;28;19924;-80
2023/09/16 07:51:46;;;;;;;;;;;;;;;14.51;100.00;101528.38;5058539;28;19940;-80
2023/09/16 07:54:32;;;;;;;;;;;;;;;14.59;100.00;101525.31;5060824;28;19951;-81
2023/09/16 07:57:18;;;;;;;;;;;;;;;14.69;100.00;101530.16;5045078;28;19928;-82
2023/09/16 08:00:07;;;;;;;;;;;;;;;14.76;100.00;101529.81;5058123;28;21859;-80
2023/09/16 08:02:52;;;;;;;;;;;;;;;14.86;100.00;101532.00;5033050;28;19928;-80
2023/09/16 08:05:38;;;;;;;;;;;;;;;14.93;100.00;101531.59;5059894;28;19939;-80
2023/09/16 08:08:24;;;;;;;;;;;;;;;15.01;100.00;101533.84;5058779;28;20132;-81
2023/09/16 08:11:09;;;;;;;;;;;;;;;15.10;100.00;101532.50;5048578;28;19925;-79
2023/09/16 08:13:55;;;;;;;;;;;;;;;15.19;100.00;101525.78;5062516;28;19964;-79
2023/09/16 08:16:40;;;;;;;;;;;;;;;15.28;100.00;101527.97;5059587;28;19935;-79
2023/09/16 08:19:26;;;;;;;;;;;;;;;15.41;100.00;101540.66;5059115;28;20438;-79
2023/09/16 08:22:12;;;;;;;;;;;;;;;15.49;100.00;101533.09;5060081;28;19979;-80
2023/09/16 08:24:57;;;;;;;;;;;;;;;15.58;100.00;101537.06;5029504;28;21801;-79
2023/09/16 08:27:43;;;;;;;;;;;;;;;15.69;100.00;101534.63;5058106;28;19928;-80
2023/09/16 08:30:29;;;;;;;;;;;;;;;15.79;100.00;101539.47;5059761;28;19979;-81
2023/09/16 08:33:14;;;;;;;;;;;;;;;15.87;100.00;101540.72;5058715;28;19969;-80
2023/09/16 08:36:00;;;;;;;;;;;;;;;15.96;100.00;101535.88;5058701;28;19932;-80
2023/09/16 08:38:46;;;;;;;;;;;;;;;16.05;100.00;101529.09;5058658;28;19932;-81
2023/09/16 08:41:44;;;;;;;;;;;;;;;16.18;100.00;101537.28;5043962;28;19987;-80
2023/09/16 08:44:30;;;;;;;;;;;;;;;16.29;100.00;101534.84;5057669;28;20005;-82
2023/09/16 08:47:19;;;;;;;;;;;;;;;16.36;100.00;101536.22;5047756;28;20501;-85
2023/09/16 08:50:06;;;;;;;;;;;;;;;16.46;100.00;101538.31;5033375;28;19928;-82
2023/09/16 08:52:55;;;;;;;;;;;;;;;16.54;100.00;101536.06;5060484;28;19932;-81
2023/09/16 08:55:41;;;;;;;;;;;;;;;16.65;100.00;101533.59;5047200;28;20002;-83
2023/09/16 08:58:30;;;;;;;;;;;;;;;16.78;100.00;101548.91;5058238;28;19928;-83
2023/09/16 09:01:19;;;;;;;;;;;;;;;16.90;100.00;101540.13;5048231;28;19925;-87
2023/09/16 09:04:05;;;;;;;;;;;;;;;16.99;100.00;101540.53;5062226;28;20052;-84
2023/09/16 09:06:53;;;;;;;;;;;;;;;17.06;100.00;101541.91;5062152;28;19940;-82
2023/09/16 09:09:38;;;;;;;;;;;;;;;17.15;100.00;101545.81;5039184;28;19924;-83
2023/09/16 09:12:24;;;;;;;;;;;;;;;17.24;100.00;101540.75;5065557;28;20031;-83
2023/09/16 09:15:19;;;;;;;;;;;;;;;17.36;100.00;101544.47;5067045;28;21362;-82
2023/09/16 09:18:04;;;;;;;;;;;;;;;17.51;100.00;101542.63;5063270;28;19928;-84
2023/09/16 09:20:50;;;;;;;;;;;;;;;17.64;100.00;101547.19;5053413;28;19973;-84
2023/09/16 09:23:36;;;;;;;;;;;;;;;17.72;100.00;101552.91;5065821;28;19924;-84
2023/09/16 09:26:21;;;;;;;;;;;;;;;17.80;100.00;101546.19;5063258;28;19924;-84
2023/09/16 09:29:10;;;;;;;;;;;;;;;17.85;100.00;101547.59;5050979;28;19929;-84
2023/09/16 09:31:56;;;;;;;;;;;;;;;17.91;100.00;101549.88;5066766;28;19928;-85
2023/09/16 09:34:44;;;;;;;;;;;;;;;17.98;100.00;101547.66;5067282;28;19939;-83
2023/09/16 09:37:29;;;;;;;;;;;;;;;18.06;100.00;101547.19;5073572;28;20075;-85
2023/09/16 09:40:15;;;;;;;;;;;;;;;18.17;100.00;101544.66;5062577;28;19928;-85
2023/09/16 09:43:01;;;;;;;;;;;;;;;18.28;100.00;101543.06;5065134;28;19924;-84
2023/09/16 09:45:47;;;;;;;;;;;;;;;18.36;100.00;101554.13;5065127;28;20132;-86
2023/09/16 09:48:33;;;;;;;;;;;;;;;18.42;100.00;101561.75;5046196;28;20345;-84
2023/09/16 09:51:18;;;;;;;;;;;;;;;18.45;100.00;101555.34;5061272;28;19942;-85
2023/09/16 09:54:06;;;;;;;;;;;;;;;18.46;100.00;101552.56;5062866;28;19933;-84
2023/09/16 09:56:52;;;;;;;;;;;;;;;18.50;100.00;101555.88;5049862;28;19967;-85
2023/09/16 09:59:37;;;;;;;;;;;;;;;18.56;100.00;101551.91;5063684;28;19935;-86
2023/09/16 10:02:27;;;;;;;;;;;;;;;18.59;100.00;101549.88;5050643;28;19967;-85
2023/09/16 10:05:14;;;;;;;;;;;;;;;18.66;100.00;101549.47;5037176;28;20367;-84
2023/09/16 10:08:00;;;;;;;;;;;;;;;18.69;100.00;101550.09;5049163;28;19939;-85
2023/09/16 10:10:46;;;;;;;;;;;;;;;18.73;100.00;101542.72;5047566;28;19927;-83
2023/09/16 10:13:31;;;;;;;;;;;;;;;18.80;100.00;101540.47;5057454;28;19924;-83
2023/09/16 10:16:17;;;;;;;;;;;;;;;18.85;100.00;101532.97;5035842;28;19973;-83
2023/09/16 10:19:03;;;;;;;;;;;;;;;18.89;100.00;101534.47;5042967;28;19966;-84
2023/09/16 10:21:48;;;;;;;;;;;;;;;18.94;100.00;101542.19;5049407;28;19934;-82
2023/09/16 10:24:34;;;;;;;;;;;;;;;18.96;100.00;101535.75;5064711;28;19945;-80
2023/09/16 10:27:23;;;;;;;;;;;;;;;18.99;100.00;101535.53;5062346;28;19928;-80
2023/09/16 10:30:12;;;;;;;;;;;;;;;19.02;100.00;101529.13;5055842;28;20081;-81
2023/09/16 10:32:58;;;;;;;;;;;;;;;19.05;100.00;101534.28;5063641;28;19932;-80
2023/09/16 10:35:44;;;;;;;;;;;;;;;19.13;100.00;101526.53;5052598;28;19928;-82
2023/09/16 10:38:29;;;;;;;;;;;;;;;19.17;100.00;101527.16;5054153;28;19954;-82
2023/09/16 10:41:15;;;;;;;;;;;;;;;19.20;100.00;101532.34;5050012;28;19932;-83
2023/09/16 10:44:01;;;;;;;;;;;;;;;19.28;100.00;101537.13;5061206;28;19997;-83
2023/09/16 10:46:56;;;;;;;;;;;;;;;19.32;100.00;101529.72;5060961;28;19936;-83
2023/09/16 10:49:45;;;;;;;;;;;;;;;19.35;100.00;101529.50;5037737;28;20704;-82
2023/09/16 10:52:41;;;;;;;;;;;;;;;19.43;100.00;101528.97;5062404;28;20477;-83
2023/09/16 10:55:27;;;;;;;;;;;;;;;19.43;100.00;101527.13;5048856;28;20768;-83
2023/09/16 10:58:26;;;;;;;;;;;;;;;19.46;100.00;101523.38;5062645;28;20563;-83
2023/09/16 11:01:13;;;;;;;;;;;;;;;19.48;100.00;101524.09;5048082;28;19924;-83
2023/09/16 11:04:02;;;;;;;;;;;;;;;19.51;100.00;101526.56;5046582;28;19957;-84
2023/09/16 11:06:50;;;;;;;;;;;;;;;19.56;100.00;101526.25;5056467;28;20068;-79
2023/09/16 11:09:36;;;;;;;;;;;;;;;19.59;100.00;101521.50;5061266;28;19935;-79
2023/09/16 11:12:21;;;;;;;;;;;;;;;19.66;100.00;101514.72;5062208;28;19935;-78
2023/09/16 11:15:08;;;;;;;;;;;;;;;19.74;100.00;101515.97;5045993;28;20397;-78
2023/09/16 11:18:03;;;;;;;;;;;;;;;19.74;100.00;101513.28;5048649;28;19936;-77
2023/09/16 11:20:48;;;;;;;;;;;;;;;19.75;100.00;101515.84;5045395;28;19928;-79
2023/09/16 11:23:35;;;;;;;;;;;;;;;19.83;100.00;101511.75;5060378;28;20040;-79
2023/09/16 11:26:22;;;;;;;;;;;;;;;19.87;100.00;101508.72;5034497;28;19928;-80
2023/09/16 11:29:24;;;;;;;;;;;;;;;19.91;100.00;101514.72;5060796;28;19938;-82
2023/09/16 11:32:11;;;;;;;;;;;;;;;19.97;100.00;101518.78;5065488;28;20368;-79
2023/09/16 11:34:59;;;;;;;;;;;;;;;19.98;100.00;101509.78;5060924;28;19963;-81
2023/09/16 11:37:45;;;;;;;;;;;;;;;20.01;100.00;101515.78;5074835;28;19923;-80
2023/09/16 11:40:34;;;;;;;;;;;;;;;20.04;100.00;101502.09;5060507;28;19959;-80
2023/09/16 11:43:19;;;;;;;;;;;;;;;20.05;100.00;101502.97;5059436;28;19963;-79
2023/09/16 11:46:12;;;;;;;;;;;;;;;20.01;100.00;101505.03;5045202;28;19955;-80
2023/09/16 11:49:00;;;;;;;;;;;;;;;20.06;100.00;101502.00;5046500;28;19924;-81
2023/09/16 11:51:50;;;;;;;;;;;;;;;20.12;100.00;101496.16;5060836;28;19924;-80
2023/09/16 11:54:36;;;;;;;;;;;;;;;20.18;100.00;101493.00;5058172;28;20585;-81
2023/09/16 11:57:22;;;;;;;;;;;;;;;20.25;100.00;101500.59;5061446;28;19929;-80
2023/09/16 12:00:08;;;;;;;;;;;;;;;20.27;100.00;101499.47;5027593;28;20397;-81
2023/09/16 12:02:54;;;;;;;;;;;;;;;20.29;100.00;101489.50;5058590;28;20011;-81
2023/09/16 12:05:40;;;;;;;;;;;;;;;20.35;100.00;101496.22;5058667;28;19932;-81
2023/09/16 12:08:26;;;;;;;;;;;;;;;20.42;100.00;101502.00;5058455;28;20027;-81
2023/09/16 12:11:11;;;;;;;;;;;;;;;20.46;100.00;101493.56;5058440;28;20365;-80
2023/09/16 12:13:58;;;;;;;;;;;;;;;20.51;100.00;101495.88;5059715;28;20023;-81
2023/09/16 12:16:44;;;;;;;;;;;;;;;20.54;100.00;101494.78;5058985;28;19928;-81
2023/09/16 12:19:30;;;;;;;;;;;;;;;20.60;100.00;101494.31;5060434;28;19934;-80
2023/09/16 12:22:16;;;;;;;;;;;;;;;20.64;100.00;101482.31;5060954;28;19925;-80
2023/09/16 12:25:01;;;;;;;;;;;;;;;20.69;100.00;101493.59;5054543;28;19927;-84
2023/09/16 12:27:47;;;;;;;;;;;;;;;20.73;98.51;101488.81;5059613;28;20055;-83
2023/09/16 12:30:40;;;;;;;;;;;;;;;20.80;98.40;101484.66;5040951;28;19928;-85
2023/09/16 12:33:43;;;;;;;;;;;;;;;20.80;98.55;101481.97;5061520;28;20039;-88
2023/09/16 12:36:33;;;;;;;;;;;;;;;20.81;99.02;101480.16;5046468;28;19933;-86
2023/09/16 12:39:19;;;;;;;;;;;;;;;20.89;99.26;101478.59;5045583;28;20341;-86
2023/09/16 12:42:05;;;;;;;;;;;;;;;20.93;97.06;101472.97;5048384;28;19928;-88
2023/09/16 12:44:52;;;;;;;;;;;;;;;20.95;99.61;101479.94;5046801;28;20023;-87
2023/09/16 12:47:37;;;;;;;;;;;;;;;21.03;99.97;101474.78;5060704;28;19928;-85
2023/09/16 12:50:25;;;;;;;;;;;;;;;21.14;95.77;101473.09;5062665;28;20025;-90
2023/09/16 12:53:11;;;;;;;;;;;;;;;21.17;96.38;101470.13;5032039;28;19928;-87
2023/09/16 12:55:59;;;;;;;;;;;;;;;21.20;92.63;101477.09;5048271;28;20015;-88
2023/09/16 12:58:46;;;;;;;;;;;;;;;21.18;92.15;101477.22;5046015;28;19935;-87
2023/09/16 13:01:32;;;;;;;;;;;;;;;21.16;89.55;101476.50;5062087;28;20532;-88
2023/09/16 13:04:18;;;;;;;;;;;;;;;21.16;92.30;101471.13;5039982;28;19935;-88
2023/09/16 13:07:04;;;;;;;;;;;;;;;21.14;91.15;101470.41;5032421;28;19936;-89
2023/09/16 13:09:50;;;;;;;;;;;;;;;21.09;91.93;101477.97;5045890;28;19931;-86
2023/09/16 13:12:35;;;;;;;;;;;;;;;21.05;91.63;101472.00;5046078;28;19925;-88
2023/09/16 13:15:21;;;;;;;;;;;;;;;21.07;92.42;101463.81;5047628;28;20652;-87
2023/09/16 13:18:08;;;;;;;;;;;;;;;21.09;90.64;101467.22;5057769;28;20011;-88
2023/09/16 13:20:54;;;;;;;;;;;;;;;21.14;87.80;101462.31;5045357;28;20372;-89
2023/09/16 13:23:47;;;;;;;;;;;;;;;21.16;89.94;101463.91;5059849;28;20287;-88
2023/09/16 13:26:33;;;;;;;;;;;;;;;21.20;88.94;101463.66;5058222;28;19945;-88
2023/09/16 13:29:21;;;;;;;;;;;;;;;21.21;90.75;101466.22;5032732;28;20427;-89
2023/09/16 13:32:07;;;;;;;;;;;;;;;21.20;90.31;101466.34;5034443;28;20022;-91
2023/09/16 13:34:55;;;;;;;;;;;;;;;21.22;90.19;101459.84;5035926;28;19924;-87
2023/09/16 13:37:40;;;;;;;;;;;;;;;21.26;91.09;101463.16;5047624;28;20002;-89
2023/09/16 13:40:26;;;;;;;;;;;;;;;21.27;91.37;101459.47;5041813;28;20023;-87
2023/09/16 13:43:12;;;;;;;;;;;;;;;21.27;90.85;101460.34;5062215;28;19929;-88
2023/09/16 13:45:58;;;;;;;;;;;;;;;21.32;91.30;101468.03;5066142;28;19932;-88
2023/09/16 13:48:45;;;;;;;;;;;;;;;21.33;90.15;101472.44;5063084;28;20356;-90
2023/09/16 13:51:31;;;;;;;;;;;;;;;21.38;86.38;101461.28;5065116;28;20494;-89
2023/09/16 13:54:17;;;;;;;;;;;;;;;21.40;87.90;101464.69;5065499;28;20477;-88
2023/09/16 13:57:03;;;;;;;;;;;;;;;21.40;88.87;101470.09;5064998;28;19932;-88
2023/09/16 13:59:49;;;;;;;;;;;;;;;21.41;87.85;101466.44;5053367;28;19928;-88
2023/09/16 14:02:35;;;;;;;;;;;;;;;21.38;87.86;101472.06;5054221;28;19928;-87
2023/09/16 14:05:20;;;;;;;;;;;;;;;21.42;90.03;101462.75;5039516;28;19928;-90